sensor_id;sensor_type;location;lat;lon;timestamp;P1;durP1;ratioP1;P2;durP2;ratioP2
2338;SDS011;1180;51.438;6.978;2023-03-11T00:00:38;2.75;;;1.80;;
2338;SDS011;1180;51.438;6.978;2023-03-11T00:03:05;2.20;;;2.00;;
2338;SDS011;1180;51.438;6.978;2023-03-11T00:05:33;2.65;;;1.90;;
2338;SDS011;1180;51.438;6.978;2023-03-11T00:08:00;2.10;;;1.83;;
2338;SDS011;1180;51.438;6.978;2023-03-11T00:10:27;2.78;;;2.10;;
2338;SDS011;1180;51.438;6.978;2023-03-11T00:12:55;2.28;;;2.08;;
2338;SDS011;1180;51.438;6.978;2023-03-11T00:15:20;2.90;;;2.50;;
2338;SDS011;1180;51.438;6.978;2023-03-11T00:17:46;2.97;;;2.20;;
2338;SDS011;1180;51.438;6.978;2023-03-11T00:20:23;2.53;;;1.75;;
2338;SDS011;1180;51.438;6.978;2023-03-11T00:22:50;4.13;;;2.15;;
2338;SDS011;1180;51.438;6.978;2023-03-11T00:25:16;3.05;;;2.75;;
2338;SDS011;1180;51.438;6.978;2023-03-11T00:27:43;2.05;;;1.95;;
2338;SDS011;1180;51.438;6.978;2023-03-11T00:30:09;4.40;;;2.60;;
2338;SDS011;1180;51.438;6.978;2023-03-11T00:32:36;3.75;;;2.25;;
2338;SDS011;1180;51.438;6.978;2023-03-11T00:35:01;1.87;;;1.77;;
2338;SDS011;1180;51.438;6.978;2023-03-11T00:37:27;3.23;;;1.50;;
2338;SDS011;1180;51.438;6.978;2023-03-11T00:39:52;2.60;;;2.07;;
2338;SDS011;1180;51.438;6.978;2023-03-11T00:42:18;1.40;;;1.30;;
2338;SDS011;1180;51.438;6.978;2023-03-11T00:44:43;2.17;;;1.97;;
2338;SDS011;1180;51.438;6.978;2023-03-11T00:47:09;5.53;;;2.00;;
2338;SDS011;1180;51.438;6.978;2023-03-11T00:49:35;4.20;;;1.80;;
2338;SDS011;1180;51.438;6.978;2023-03-11T00:52:01;3.57;;;2.23;;
2338;SDS011;1180;51.438;6.978;2023-03-11T00:54:26;4.03;;;2.00;;
2338;SDS011;1180;51.438;6.978;2023-03-11T00:56:52;1.87;;;1.50;;
2338;SDS011;1180;51.438;6.978;2023-03-11T00:59:17;4.43;;;2.30;;
2338;SDS011;1180;51.438;6.978;2023-03-11T01:01:42;2.10;;;1.77;;
2338;SDS011;1180;51.438;6.978;2023-03-11T01:04:08;1.87;;;1.73;;
2338;SDS011;1180;51.438;6.978;2023-03-11T01:06:33;6.53;;;2.30;;
2338;SDS011;1180;51.438;6.978;2023-03-11T01:08:58;3.17;;;2.30;;
2338;SDS011;1180;51.438;6.978;2023-03-11T01:11:24;2.77;;;1.80;;
2338;SDS011;1180;51.438;6.978;2023-03-11T01:13:49;3.13;;;1.77;;
2338;SDS011;1180;51.438;6.978;2023-03-11T01:16:14;3.23;;;1.97;;
2338;SDS011;1180;51.438;6.978;2023-03-11T01:18:40;2.30;;;2.03;;
2338;SDS011;1180;51.438;6.978;2023-03-11T01:21:05;3.53;;;2.40;;
2338;SDS011;1180;51.438;6.978;2023-03-11T01:23:31;5.40;;;2.43;;
2338;SDS011;1180;51.438;6.978;2023-03-11T01:25:57;3.80;;;2.50;;
2338;SDS011;1180;51.438;6.978;2023-03-11T01:28:22;4.87;;;3.40;;
2338;SDS011;1180;51.438;6.978;2023-03-11T01:30:48;9.90;;;4.30;;
2338;SDS011;1180;51.438;6.978;2023-03-11T01:33:16;5.70;;;3.63;;
2338;SDS011;1180;51.438;6.978;2023-03-11T01:35:42;5.05;;;3.10;;
2338;SDS011;1180;51.438;6.978;2023-03-11T01:38:08;7.20;;;3.70;;
2338;SDS011;1180;51.438;6.978;2023-03-11T01:40:35;3.07;;;2.83;;
2338;SDS011;1180;51.438;6.978;2023-03-11T01:43:03;7.25;;;3.40;;
2338;SDS011;1180;51.438;6.978;2023-03-11T01:48:14;2.83;;;1.92;;
2338;SDS011;1180;51.438;6.978;2023-03-11T01:50:42;3.90;;;1.93;;
2338;SDS011;1180;51.438;6.978;2023-03-11T01:53:10;1.60;;;1.50;;
2338;SDS011;1180;51.438;6.978;2023-03-11T01:55:37;4.40;;;1.80;;
2338;SDS011;1180;51.438;6.978;2023-03-11T01:58:04;6.07;;;2.57;;
2338;SDS011;1180;51.438;6.978;2023-03-11T02:00:32;2.75;;;2.03;;
2338;SDS011;1180;51.438;6.978;2023-03-11T02:02:59;4.75;;;2.08;;
2338;SDS011;1180;51.438;6.978;2023-03-11T02:05:26;5.50;;;2.25;;
2338;SDS011;1180;51.438;6.978;2023-03-11T02:07:52;4.50;;;1.90;;
2338;SDS011;1180;51.438;6.978;2023-03-11T02:10:19;7.60;;;2.70;;
2338;SDS011;1180;51.438;6.978;2023-03-11T02:12:45;4.25;;;2.22;;
2338;SDS011;1180;51.438;6.978;2023-03-11T02:15:12;4.20;;;2.00;;
2338;SDS011;1180;51.438;6.978;2023-03-11T02:17:39;3.00;;;1.80;;
2338;SDS011;1180;51.438;6.978;2023-03-11T02:22:40;2.47;;;1.88;;
2338;SDS011;1180;51.438;6.978;2023-03-11T02:25:40;11.85;;;3.05;;
2338;SDS011;1180;51.438;6.978;2023-03-11T02:28:09;9.10;;;2.28;;
2338;SDS011;1180;51.438;6.978;2023-03-11T02:30:36;8.88;;;2.85;;
2338;SDS011;1180;51.438;6.978;2023-03-11T02:33:05;7.28;;;2.63;;
2338;SDS011;1180;51.438;6.978;2023-03-11T02:35:30;16.57;;;5.27;;
2338;SDS011;1180;51.438;6.978;2023-03-11T02:37:56;8.57;;;4.23;;
2338;SDS011;1180;51.438;6.978;2023-03-11T02:43:01;6.05;;;2.65;;
2338;SDS011;1180;51.438;6.978;2023-03-11T02:45:29;7.32;;;2.95;;
2338;SDS011;1180;51.438;6.978;2023-03-11T02:47:56;6.63;;;3.15;;
2338;SDS011;1180;51.438;6.978;2023-03-11T02:50:24;4.78;;;3.00;;
2338;SDS011;1180;51.438;6.978;2023-03-11T02:52:51;8.55;;;2.63;;
2338;SDS011;1180;51.438;6.978;2023-03-11T02:55:16;5.63;;;2.90;;
2338;SDS011;1180;51.438;6.978;2023-03-11T02:57:44;6.75;;;2.40;;
2338;SDS011;1180;51.438;6.978;2023-03-11T03:00:10;9.73;;;2.70;;
2338;SDS011;1180;51.438;6.978;2023-03-11T03:02:41;6.95;;;2.22;;
2338;SDS011;1180;51.438;6.978;2023-03-11T03:05:07;4.78;;;2.90;;
2338;SDS011;1180;51.438;6.978;2023-03-11T03:07:34;7.25;;;3.00;;
2338;SDS011;1180;51.438;6.978;2023-03-11T03:09:59;8.23;;;3.30;;
2338;SDS011;1180;51.438;6.978;2023-03-11T03:12:25;5.97;;;2.63;;
2338;SDS011;1180;51.438;6.978;2023-03-11T03:14:50;5.57;;;2.80;;
2338;SDS011;1180;51.438;6.978;2023-03-11T03:17:16;3.90;;;2.77;;
2338;SDS011;1180;51.438;6.978;2023-03-11T03:19:41;6.50;;;3.20;;
2338;SDS011;1180;51.438;6.978;2023-03-11T03:22:07;9.07;;;3.30;;
2338;SDS011;1180;51.438;6.978;2023-03-11T03:24:32;8.00;;;2.77;;
2338;SDS011;1180;51.438;6.978;2023-03-11T03:26:57;6.27;;;3.30;;
2338;SDS011;1180;51.438;6.978;2023-03-11T03:29:23;5.70;;;2.67;;
2338;SDS011;1180;51.438;6.978;2023-03-11T03:31:48;9.67;;;2.90;;
2338;SDS011;1180;51.438;6.978;2023-03-11T03:34:13;4.10;;;2.10;;
2338;SDS011;1180;51.438;6.978;2023-03-11T03:36:39;4.70;;;2.37;;
2338;SDS011;1180;51.438;6.978;2023-03-11T03:39:04;8.63;;;2.50;;
2338;SDS011;1180;51.438;6.978;2023-03-11T03:41:30;6.37;;;2.70;;
2338;SDS011;1180;51.438;6.978;2023-03-11T03:43:55;6.00;;;2.80;;
2338;SDS011;1180;51.438;6.978;2023-03-11T03:46:20;5.60;;;2.43;;
2338;SDS011;1180;51.438;6.978;2023-03-11T03:48:46;6.80;;;3.00;;
2338;SDS011;1180;51.438;6.978;2023-03-11T03:51:12;3.50;;;2.50;;
2338;SDS011;1180;51.438;6.978;2023-03-11T03:53:38;5.78;;;1.85;;
2338;SDS011;1180;51.438;6.978;2023-03-11T03:56:04;5.90;;;2.50;;
2338;SDS011;1180;51.438;6.978;2023-03-11T03:58:32;10.05;;;1.80;;
2338;SDS011;1180;51.438;6.978;2023-03-11T04:00:57;3.60;;;1.50;;
2338;SDS011;1180;51.438;6.978;2023-03-11T04:03:25;7.93;;;1.90;;
2338;SDS011;1180;51.438;6.978;2023-03-11T04:05:51;7.45;;;2.20;;
2338;SDS011;1180;51.438;6.978;2023-03-11T04:08:16;5.80;;;1.90;;
2338;SDS011;1180;51.438;6.978;2023-03-11T04:10:42;5.43;;;3.03;;
2338;SDS011;1180;51.438;6.978;2023-03-11T04:13:07;6.63;;;2.37;;
2338;SDS011;1180;51.438;6.978;2023-03-11T04:15:33;9.10;;;2.07;;
2338;SDS011;1180;51.438;6.978;2023-03-11T04:17:58;3.60;;;2.00;;
2338;SDS011;1180;51.438;6.978;2023-03-11T04:20:23;4.77;;;2.50;;
2338;SDS011;1180;51.438;6.978;2023-03-11T04:22:49;5.47;;;1.60;;
2338;SDS011;1180;51.438;6.978;2023-03-11T04:25:14;7.23;;;2.40;;
2338;SDS011;1180;51.438;6.978;2023-03-11T04:27:40;4.83;;;1.73;;
2338;SDS011;1180;51.438;6.978;2023-03-11T04:30:10;2.85;;;1.67;;
2338;SDS011;1180;51.438;6.978;2023-03-11T04:32:36;2.65;;;1.73;;
2338;SDS011;1180;51.438;6.978;2023-03-11T04:35:02;6.63;;;2.43;;
2338;SDS011;1180;51.438;6.978;2023-03-11T04:37:28;5.10;;;1.50;;
2338;SDS011;1180;51.438;6.978;2023-03-11T04:39:54;7.85;;;1.92;;
2338;SDS011;1180;51.438;6.978;2023-03-11T04:42:20;5.37;;;2.60;;
2338;SDS011;1180;51.438;6.978;2023-03-11T04:44:45;5.90;;;1.90;;
2338;SDS011;1180;51.438;6.978;2023-03-11T04:47:11;4.73;;;2.03;;
2338;SDS011;1180;51.438;6.978;2023-03-11T04:49:37;4.60;;;1.70;;
2338;SDS011;1180;51.438;6.978;2023-03-11T04:52:03;7.80;;;2.40;;
2338;SDS011;1180;51.438;6.978;2023-03-11T04:54:28;7.43;;;1.57;;
2338;SDS011;1180;51.438;6.978;2023-03-11T04:56:54;5.53;;;2.03;;
2338;SDS011;1180;51.438;6.978;2023-03-11T04:59:20;4.77;;;2.13;;
2338;SDS011;1180;51.438;6.978;2023-03-11T05:01:45;7.53;;;1.47;;
2338;SDS011;1180;51.438;6.978;2023-03-11T05:04:11;7.13;;;2.33;;
2338;SDS011;1180;51.438;6.978;2023-03-11T05:06:37;5.20;;;1.80;;
2338;SDS011;1180;51.438;6.978;2023-03-11T05:09:03;4.25;;;1.88;;
2338;SDS011;1180;51.438;6.978;2023-03-11T05:11:29;5.90;;;2.30;;
2338;SDS011;1180;51.438;6.978;2023-03-11T05:13:55;4.35;;;2.20;;
2338;SDS011;1180;51.438;6.978;2023-03-11T05:16:21;8.17;;;1.80;;
2338;SDS011;1180;51.438;6.978;2023-03-11T05:18:47;7.77;;;2.07;;
2338;SDS011;1180;51.438;6.978;2023-03-11T05:21:12;7.43;;;2.63;;
2338;SDS011;1180;51.438;6.978;2023-03-11T05:23:38;10.83;;;3.90;;
2338;SDS011;1180;51.438;6.978;2023-03-11T05:26:04;7.53;;;2.70;;
2338;SDS011;1180;51.438;6.978;2023-03-11T05:28:30;8.93;;;3.00;;
2338;SDS011;1180;51.438;6.978;2023-03-11T05:30:56;3.37;;;2.13;;
2338;SDS011;1180;51.438;6.978;2023-03-11T05:33:21;10.23;;;2.60;;
2338;SDS011;1180;51.438;6.978;2023-03-11T05:35:47;7.47;;;2.40;;
2338;SDS011;1180;51.438;6.978;2023-03-11T05:38:13;6.03;;;3.33;;
2338;SDS011;1180;51.438;6.978;2023-03-11T05:40:38;6.10;;;3.50;;
2338;SDS011;1180;51.438;6.978;2023-03-11T05:43:04;8.10;;;3.33;;
2338;SDS011;1180;51.438;6.978;2023-03-11T05:45:29;11.43;;;3.67;;
2338;SDS011;1180;51.438;6.978;2023-03-11T05:47:55;13.30;;;2.57;;
2338;SDS011;1180;51.438;6.978;2023-03-11T05:50:20;5.47;;;2.33;;
2338;SDS011;1180;51.438;6.978;2023-03-11T05:52:46;6.93;;;3.40;;
2338;SDS011;1180;51.438;6.978;2023-03-11T05:55:11;4.53;;;3.10;;
2338;SDS011;1180;51.438;6.978;2023-03-11T05:57:37;9.40;;;3.20;;
2338;SDS011;1180;51.438;6.978;2023-03-11T06:00:04;5.72;;;2.45;;
2338;SDS011;1180;51.438;6.978;2023-03-11T06:02:36;9.23;;;3.10;;
2338;SDS011;1180;51.438;6.978;2023-03-11T06:05:03;9.45;;;3.38;;
2338;SDS011;1180;51.438;6.978;2023-03-11T06:07:29;6.13;;;2.70;;
2338;SDS011;1180;51.438;6.978;2023-03-11T06:09:54;5.37;;;3.20;;
2338;SDS011;1180;51.438;6.978;2023-03-11T06:12:20;11.50;;;3.60;;
2338;SDS011;1180;51.438;6.978;2023-03-11T06:14:45;4.90;;;2.60;;
2338;SDS011;1180;51.438;6.978;2023-03-11T06:17:11;11.07;;;3.53;;
2338;SDS011;1180;51.438;6.978;2023-03-11T06:19:36;6.73;;;3.20;;
2338;SDS011;1180;51.438;6.978;2023-03-11T06:22:01;6.97;;;2.70;;
2338;SDS011;1180;51.438;6.978;2023-03-11T06:24:27;7.43;;;2.77;;
2338;SDS011;1180;51.438;6.978;2023-03-11T06:26:52;5.47;;;3.10;;
2338;SDS011;1180;51.438;6.978;2023-03-11T06:29:18;4.13;;;1.90;;
2338;SDS011;1180;51.438;6.978;2023-03-11T06:31:43;4.07;;;2.60;;
2338;SDS011;1180;51.438;6.978;2023-03-11T06:34:09;10.13;;;2.90;;
2338;SDS011;1180;51.438;6.978;2023-03-11T06:36:35;8.65;;;2.50;;
2338;SDS011;1180;51.438;6.978;2023-03-11T06:39:01;2.97;;;1.90;;
2338;SDS011;1180;51.438;6.978;2023-03-11T06:41:28;5.53;;;3.00;;
2338;SDS011;1180;51.438;6.978;2023-03-11T06:43:53;9.83;;;2.23;;
2338;SDS011;1180;51.438;6.978;2023-03-11T06:46:20;6.53;;;2.37;;
2338;SDS011;1180;51.438;6.978;2023-03-11T06:48:47;7.50;;;3.22;;
2338;SDS011;1180;51.438;6.978;2023-03-11T06:51:16;5.95;;;2.28;;
2338;SDS011;1180;51.438;6.978;2023-03-11T06:53:42;5.80;;;2.35;;
2338;SDS011;1180;51.438;6.978;2023-03-11T06:56:10;9.02;;;2.65;;
2338;SDS011;1180;51.438;6.978;2023-03-11T06:58:37;7.05;;;2.30;;
2338;SDS011;1180;51.438;6.978;2023-03-11T07:01:13;4.22;;;1.65;;
2338;SDS011;1180;51.438;6.978;2023-03-11T07:03:40;8.18;;;2.17;;
2338;SDS011;1180;51.438;6.978;2023-03-11T07:06:09;3.30;;;1.98;;
2338;SDS011;1180;51.438;6.978;2023-03-11T07:08:39;4.50;;;2.55;;
2338;SDS011;1180;51.438;6.978;2023-03-11T07:11:06;6.03;;;2.63;;
2338;SDS011;1180;51.438;6.978;2023-03-11T07:13:37;6.47;;;3.00;;
2338;SDS011;1180;51.438;6.978;2023-03-11T07:16:03;8.63;;;2.67;;
2338;SDS011;1180;51.438;6.978;2023-03-11T07:18:31;7.10;;;3.22;;
2338;SDS011;1180;51.438;6.978;2023-03-11T07:20:57;8.40;;;3.58;;
2338;SDS011;1180;51.438;6.978;2023-03-11T07:23:23;5.03;;;3.10;;
2338;SDS011;1180;51.438;6.978;2023-03-11T07:25:48;6.43;;;2.53;;
2338;SDS011;1180;51.438;6.978;2023-03-11T07:28:15;6.57;;;2.25;;
2338;SDS011;1180;51.438;6.978;2023-03-11T07:30:41;7.43;;;3.40;;
2338;SDS011;1180;51.438;6.978;2023-03-11T07:33:09;4.80;;;3.08;;
2338;SDS011;1180;51.438;6.978;2023-03-11T07:35:34;7.00;;;3.10;;
2338;SDS011;1180;51.438;6.978;2023-03-11T07:38:00;7.80;;;3.60;;
2338;SDS011;1180;51.438;6.978;2023-03-11T07:40:25;11.90;;;4.13;;
2338;SDS011;1180;51.438;6.978;2023-03-11T07:42:50;10.03;;;3.73;;
2338;SDS011;1180;51.438;6.978;2023-03-11T07:45:16;5.67;;;3.33;;
2338;SDS011;1180;51.438;6.978;2023-03-11T07:47:45;8.70;;;3.23;;
2338;SDS011;1180;51.438;6.978;2023-03-11T07:50:11;6.55;;;3.47;;
2338;SDS011;1180;51.438;6.978;2023-03-11T07:52:36;5.80;;;2.90;;
2338;SDS011;1180;51.438;6.978;2023-03-11T07:55:02;7.47;;;3.23;;
2338;SDS011;1180;51.438;6.978;2023-03-11T07:57:28;10.60;;;3.40;;
2338;SDS011;1180;51.438;6.978;2023-03-11T07:59:53;5.70;;;3.00;;
2338;SDS011;1180;51.438;6.978;2023-03-11T08:02:18;8.07;;;2.43;;
2338;SDS011;1180;51.438;6.978;2023-03-11T08:04:44;8.43;;;2.70;;
2338;SDS011;1180;51.438;6.978;2023-03-11T08:07:09;7.43;;;2.73;;
2338;SDS011;1180;51.438;6.978;2023-03-11T08:09:34;7.77;;;3.30;;
2338;SDS011;1180;51.438;6.978;2023-03-11T08:12:00;3.97;;;2.30;;
2338;SDS011;1180;51.438;6.978;2023-03-11T08:14:25;9.50;;;2.90;;
2338;SDS011;1180;51.438;6.978;2023-03-11T08:16:51;9.33;;;3.87;;
2338;SDS011;1180;51.438;6.978;2023-03-11T08:19:16;6.47;;;2.50;;
2338;SDS011;1180;51.438;6.978;2023-03-11T08:21:42;4.10;;;2.77;;
2338;SDS011;1180;51.438;6.978;2023-03-11T08:24:08;5.47;;;2.57;;
2338;SDS011;1180;51.438;6.978;2023-03-11T08:26:35;5.65;;;2.65;;
2338;SDS011;1180;51.438;6.978;2023-03-11T08:29:01;4.40;;;1.97;;
2338;SDS011;1180;51.438;6.978;2023-03-11T08:31:29;8.60;;;2.60;;
2338;SDS011;1180;51.438;6.978;2023-03-11T08:33:58;7.50;;;2.75;;
2338;SDS011;1180;51.438;6.978;2023-03-11T08:36:25;4.88;;;2.20;;
2338;SDS011;1180;51.438;6.978;2023-03-11T08:38:51;5.67;;;3.00;;
2338;SDS011;1180;51.438;6.978;2023-03-11T08:41:17;8.77;;;2.90;;
2338;SDS011;1180;51.438;6.978;2023-03-11T08:43:43;5.45;;;2.78;;
2338;SDS011;1180;51.438;6.978;2023-03-11T08:46:09;4.87;;;2.33;;
2338;SDS011;1180;51.438;6.978;2023-03-11T08:48:41;6.07;;;2.75;;
2338;SDS011;1180;51.438;6.978;2023-03-11T08:51:12;7.10;;;2.80;;
2338;SDS011;1180;51.438;6.978;2023-03-11T08:53:38;7.03;;;2.75;;
2338;SDS011;1180;51.438;6.978;2023-03-11T08:56:04;4.37;;;2.43;;
2338;SDS011;1180;51.438;6.978;2023-03-11T08:58:29;4.30;;;1.98;;
2338;SDS011;1180;51.438;6.978;2023-03-11T09:00:55;3.00;;;1.50;;
2338;SDS011;1180;51.438;6.978;2023-03-11T09:03:21;11.75;;;2.92;;
2338;SDS011;1180;51.438;6.978;2023-03-11T09:05:46;4.30;;;2.77;;
2338;SDS011;1180;51.438;6.978;2023-03-11T09:08:12;3.53;;;1.27;;
2338;SDS011;1180;51.438;6.978;2023-03-11T09:10:37;3.10;;;1.10;;
2338;SDS011;1180;51.438;6.978;2023-03-11T09:13:02;4.03;;;0.90;;
2338;SDS011;1180;51.438;6.978;2023-03-11T09:15:27;5.00;;;1.23;;
2338;SDS011;1180;51.438;6.978;2023-03-11T09:17:53;1.20;;;1.10;;
2338;SDS011;1180;51.438;6.978;2023-03-11T09:20:19;1.90;;;1.45;;
2338;SDS011;1180;51.438;6.978;2023-03-11T09:22:45;4.27;;;1.43;;
2338;SDS011;1180;51.438;6.978;2023-03-11T09:25:11;3.80;;;1.13;;
2338;SDS011;1180;51.438;6.978;2023-03-11T09:27:37;4.50;;;1.33;;
2338;SDS011;1180;51.438;6.978;2023-03-11T09:30:03;5.20;;;1.30;;
2338;SDS011;1180;51.438;6.978;2023-03-11T09:32:29;2.63;;;1.27;;
2338;SDS011;1180;51.438;6.978;2023-03-11T09:34:54;2.90;;;1.10;;
2338;SDS011;1180;51.438;6.978;2023-03-11T09:37:21;2.45;;;0.93;;
2338;SDS011;1180;51.438;6.978;2023-03-11T09:39:47;4.10;;;1.20;;
2338;SDS011;1180;51.438;6.978;2023-03-11T09:45:14;5.07;;;1.08;;
2338;SDS011;1180;51.438;6.978;2023-03-11T09:50:30;2.78;;;0.80;;
2338;SDS011;1180;51.438;6.978;2023-03-11T09:56:03;3.08;;;1.17;;
2338;SDS011;1180;51.438;6.978;2023-03-11T09:58:44;1.85;;;1.10;;
2338;SDS011;1180;51.438;6.978;2023-03-11T10:01:14;2.13;;;1.02;;
2338;SDS011;1180;51.438;6.978;2023-03-11T10:03:43;1.10;;;0.80;;
2338;SDS011;1180;51.438;6.978;2023-03-11T10:06:16;2.63;;;1.10;;
2338;SDS011;1180;51.438;6.978;2023-03-11T10:08:47;1.15;;;0.80;;
2338;SDS011;1180;51.438;6.978;2023-03-11T10:20:21;2.08;;;1.00;;
2338;SDS011;1180;51.438;6.978;2023-03-11T10:25:23;2.85;;;1.20;;
2338;SDS011;1180;51.438;6.978;2023-03-11T10:27:58;1.60;;;1.37;;
2338;SDS011;1180;51.438;6.978;2023-03-11T10:30:40;1.23;;;0.90;;
2338;SDS011;1180;51.438;6.978;2023-03-11T10:36:09;4.43;;;1.10;;
2338;SDS011;1180;51.438;6.978;2023-03-11T10:38:44;2.40;;;0.97;;
2338;SDS011;1180;51.438;6.978;2023-03-11T10:44:18;2.70;;;0.80;;
2338;SDS011;1180;51.438;6.978;2023-03-11T10:46:48;5.68;;;1.90;;
2338;SDS011;1180;51.438;6.978;2023-03-11T10:49:14;1.87;;;1.10;;
2338;SDS011;1180;51.438;6.978;2023-03-11T10:51:40;9.55;;;1.40;;
2338;SDS011;1180;51.438;6.978;2023-03-11T10:57:00;3.60;;;1.20;;
2338;SDS011;1180;51.438;6.978;2023-03-11T11:01:58;2.83;;;1.10;;
2338;SDS011;1180;51.438;6.978;2023-03-11T11:04:30;2.67;;;1.33;;
2338;SDS011;1180;51.438;6.978;2023-03-11T11:07:19;1.60;;;1.20;;
2338;SDS011;1180;51.438;6.978;2023-03-11T11:12:58;3.47;;;1.10;;
2338;SDS011;1180;51.438;6.978;2023-03-11T11:15:37;1.60;;;0.77;;
2338;SDS011;1180;51.438;6.978;2023-03-11T11:18:05;2.65;;;1.05;;
2338;SDS011;1180;51.438;6.978;2023-03-11T11:20:51;3.23;;;1.13;;
2338;SDS011;1180;51.438;6.978;2023-03-11T11:26:05;3.73;;;1.00;;
2338;SDS011;1180;51.438;6.978;2023-03-11T11:28:38;5.63;;;1.40;;
2338;SDS011;1180;51.438;6.978;2023-03-11T11:31:04;1.73;;;1.20;;
2338;SDS011;1180;51.438;6.978;2023-03-11T11:33:51;3.77;;;0.80;;
2338;SDS011;1180;51.438;6.978;2023-03-11T11:36:19;3.63;;;1.20;;
2338;SDS011;1180;51.438;6.978;2023-03-11T11:38:51;1.87;;;1.20;;
2338;SDS011;1180;51.438;6.978;2023-03-11T11:41:19;2.30;;;1.20;;
2338;SDS011;1180;51.438;6.978;2023-03-11T11:43:53;2.53;;;1.03;;
2338;SDS011;1180;51.438;6.978;2023-03-11T11:46:30;2.80;;;1.20;;
2338;SDS011;1180;51.438;6.978;2023-03-11T11:49:20;1.10;;;0.83;;
2338;SDS011;1180;51.438;6.978;2023-03-11T11:51:51;3.90;;;1.30;;
2338;SDS011;1180;51.438;6.978;2023-03-11T11:57:15;4.75;;;1.35;;
2338;SDS011;1180;51.438;6.978;2023-03-11T11:59:43;1.67;;;1.10;;
2338;SDS011;1180;51.438;6.978;2023-03-11T12:04:47;7.10;;;1.17;;
2338;SDS011;1180;51.438;6.978;2023-03-11T12:13:52;2.03;;;1.10;;
2338;SDS011;1180;51.438;6.978;2023-03-11T12:16:10;4.83;;;1.00;;
2338;SDS011;1180;51.438;6.978;2023-03-11T12:21:50;2.07;;;1.00;;
2338;SDS011;1180;51.438;6.978;2023-03-11T12:24:24;3.90;;;1.10;;
2338;SDS011;1180;51.438;6.978;2023-03-11T12:27:04;3.30;;;1.43;;
2338;SDS011;1180;51.438;6.978;2023-03-11T12:29:45;2.90;;;1.30;;
2338;SDS011;1180;51.438;6.978;2023-03-11T12:32:32;4.13;;;1.57;;
2338;SDS011;1180;51.438;6.978;2023-03-11T12:35:02;1.87;;;1.30;;
2338;SDS011;1180;51.438;6.978;2023-03-11T12:37:34;5.67;;;1.10;;
2338;SDS011;1180;51.438;6.978;2023-03-11T12:40:17;1.73;;;1.13;;
2338;SDS011;1180;51.438;6.978;2023-03-11T12:43:04;2.90;;;2.00;;
2338;SDS011;1180;51.438;6.978;2023-03-11T12:51:00;2.67;;;1.40;;
2338;SDS011;1180;51.438;6.978;2023-03-11T12:56:17;5.20;;;1.87;;
2338;SDS011;1180;51.438;6.978;2023-03-11T13:09:24;2.33;;;1.77;;
2338;SDS011;1180;51.438;6.978;2023-03-11T13:11:49;4.93;;;1.60;;
2338;SDS011;1180;51.438;6.978;2023-03-11T13:14:33;3.37;;;1.83;;
2338;SDS011;1180;51.438;6.978;2023-03-11T13:19:55;3.30;;;1.60;;
2338;SDS011;1180;51.438;6.978;2023-03-11T13:25:35;4.50;;;2.57;;
2338;SDS011;1180;51.438;6.978;2023-03-11T13:28:05;3.77;;;1.90;;
2338;SDS011;1180;51.438;6.978;2023-03-11T13:31:33;5.07;;;2.20;;
2338;SDS011;1180;51.438;6.978;2023-03-11T13:33:55;5.77;;;2.10;;
2338;SDS011;1180;51.438;6.978;2023-03-11T13:36:35;6.63;;;1.80;;
2338;SDS011;1180;51.438;6.978;2023-03-11T13:41:56;6.87;;;1.63;;
2338;SDS011;1180;51.438;6.978;2023-03-11T13:44:34;2.13;;;1.50;;
2338;SDS011;1180;51.438;6.978;2023-03-11T13:47:14;4.27;;;1.93;;
2338;SDS011;1180;51.438;6.978;2023-03-11T13:49:42;2.73;;;1.57;;
2338;SDS011;1180;51.438;6.978;2023-03-11T13:52:19;3.10;;;1.50;;
2338;SDS011;1180;51.438;6.978;2023-03-11T13:55:03;3.50;;;2.20;;
2338;SDS011;1180;51.438;6.978;2023-03-11T13:57:33;3.87;;;2.00;;
2338;SDS011;1180;51.438;6.978;2023-03-11T14:00:04;2.60;;;1.77;;
2338;SDS011;1180;51.438;6.978;2023-03-11T14:03:01;6.80;;;2.30;;
2338;SDS011;1180;51.438;6.978;2023-03-11T14:05:29;4.00;;;1.93;;
2338;SDS011;1180;51.438;6.978;2023-03-11T14:08:12;3.63;;;1.80;;
2338;SDS011;1180;51.438;6.978;2023-03-11T14:11:18;2.60;;;1.83;;
2338;SDS011;1180;51.438;6.978;2023-03-11T14:13:41;3.97;;;1.40;;
2338;SDS011;1180;51.438;6.978;2023-03-11T14:19:11;2.30;;;1.33;;
2338;SDS011;1180;51.438;6.978;2023-03-11T14:21:42;8.47;;;1.53;;
2338;SDS011;1180;51.438;6.978;2023-03-11T14:24:18;2.03;;;1.53;;
2338;SDS011;1180;51.438;6.978;2023-03-11T14:26:53;1.83;;;1.23;;
2338;SDS011;1180;51.438;6.978;2023-03-11T14:29:30;2.37;;;1.60;;
2338;SDS011;1180;51.438;6.978;2023-03-11T14:31:59;5.73;;;1.80;;
2338;SDS011;1180;51.438;6.978;2023-03-11T14:34:25;3.60;;;1.90;;
2338;SDS011;1180;51.438;6.978;2023-03-11T14:36:59;3.67;;;2.43;;
2338;SDS011;1180;51.438;6.978;2023-03-11T14:39:34;1.77;;;1.30;;
2338;SDS011;1180;51.438;6.978;2023-03-11T14:47:44;5.70;;;1.50;;
2338;SDS011;1180;51.438;6.978;2023-03-11T14:50:14;4.97;;;1.90;;
2338;SDS011;1180;51.438;6.978;2023-03-11T14:52:42;2.37;;;1.53;;
2338;SDS011;1180;51.438;6.978;2023-03-11T14:55:12;1.87;;;1.40;;
2338;SDS011;1180;51.438;6.978;2023-03-11T15:00:14;2.70;;;1.50;;
2338;SDS011;1180;51.438;6.978;2023-03-11T15:05:33;3.00;;;1.40;;
2338;SDS011;1180;51.438;6.978;2023-03-11T15:08:05;13.03;;;2.53;;
2338;SDS011;1180;51.438;6.978;2023-03-11T15:10:31;3.27;;;1.20;;
2338;SDS011;1180;51.438;6.978;2023-03-11T15:13:08;2.47;;;1.70;;
2338;SDS011;1180;51.438;6.978;2023-03-11T15:15:38;2.50;;;1.30;;
2338;SDS011;1180;51.438;6.978;2023-03-11T15:18:14;2.60;;;1.33;;
2338;SDS011;1180;51.438;6.978;2023-03-11T15:20:45;3.30;;;1.30;;
2338;SDS011;1180;51.438;6.978;2023-03-11T15:23:18;3.43;;;1.77;;
2338;SDS011;1180;51.438;6.978;2023-03-11T15:25:47;2.17;;;1.60;;
2338;SDS011;1180;51.438;6.978;2023-03-11T15:28:21;3.70;;;2.37;;
2338;SDS011;1180;51.438;6.978;2023-03-11T15:30:49;2.80;;;1.23;;
2338;SDS011;1180;51.438;6.978;2023-03-11T15:33:20;2.37;;;1.50;;
2338;SDS011;1180;51.438;6.978;2023-03-11T15:35:47;2.93;;;1.70;;
2338;SDS011;1180;51.438;6.978;2023-03-11T15:38:23;5.03;;;2.00;;
2338;SDS011;1180;51.438;6.978;2023-03-11T15:40:56;3.37;;;1.73;;
2338;SDS011;1180;51.438;6.978;2023-03-11T15:43:24;3.60;;;1.90;;
2338;SDS011;1180;51.438;6.978;2023-03-11T15:45:59;3.93;;;2.10;;
2338;SDS011;1180;51.438;6.978;2023-03-11T15:48:26;2.40;;;1.60;;
2338;SDS011;1180;51.438;6.978;2023-03-11T15:50:54;4.50;;;2.00;;
2338;SDS011;1180;51.438;6.978;2023-03-11T15:53:24;1.60;;;1.40;;
2338;SDS011;1180;51.438;6.978;2023-03-11T15:55:51;2.13;;;1.77;;
2338;SDS011;1180;51.438;6.978;2023-03-11T15:58:19;2.23;;;1.70;;
2338;SDS011;1180;51.438;6.978;2023-03-11T16:00:54;2.50;;;1.60;;
2338;SDS011;1180;51.438;6.978;2023-03-11T16:03:21;2.57;;;1.90;;
2338;SDS011;1180;51.438;6.978;2023-03-11T16:05:47;2.90;;;1.47;;
2338;SDS011;1180;51.438;6.978;2023-03-11T16:08:16;5.10;;;1.80;;
2338;SDS011;1180;51.438;6.978;2023-03-11T16:10:41;3.70;;;1.60;;
2338;SDS011;1180;51.438;6.978;2023-03-11T16:13:13;2.87;;;1.97;;
2338;SDS011;1180;51.438;6.978;2023-03-11T16:15:40;1.93;;;1.50;;
2338;SDS011;1180;51.438;6.978;2023-03-11T16:18:07;2.30;;;2.00;;
2338;SDS011;1180;51.438;6.978;2023-03-11T16:20:36;2.73;;;1.73;;
2338;SDS011;1180;51.438;6.978;2023-03-11T16:23:20;4.80;;;1.67;;
2338;SDS011;1180;51.438;6.978;2023-03-11T16:25:48;3.43;;;2.73;;
2338;SDS011;1180;51.438;6.978;2023-03-11T16:28:14;3.27;;;1.53;;
2338;SDS011;1180;51.438;6.978;2023-03-11T16:30:40;3.97;;;1.80;;
2338;SDS011;1180;51.438;6.978;2023-03-11T16:33:06;3.43;;;1.73;;
2338;SDS011;1180;51.438;6.978;2023-03-11T16:35:31;3.50;;;2.07;;
2338;SDS011;1180;51.438;6.978;2023-03-11T16:37:57;2.50;;;1.60;;
2338;SDS011;1180;51.438;6.978;2023-03-11T16:40:24;2.77;;;1.67;;
2338;SDS011;1180;51.438;6.978;2023-03-11T16:43:02;5.53;;;2.20;;
2338;SDS011;1180;51.438;6.978;2023-03-11T16:45:30;3.57;;;1.80;;
2338;SDS011;1180;51.438;6.978;2023-03-11T16:47:55;6.43;;;2.10;;
2338;SDS011;1180;51.438;6.978;2023-03-11T16:50:21;4.90;;;2.10;;
2338;SDS011;1180;51.438;6.978;2023-03-11T16:52:50;2.70;;;1.60;;
2338;SDS011;1180;51.438;6.978;2023-03-11T16:55:19;2.70;;;1.93;;
2338;SDS011;1180;51.438;6.978;2023-03-11T16:57:45;4.60;;;1.97;;
2338;SDS011;1180;51.438;6.978;2023-03-11T17:00:11;3.33;;;1.83;;
2338;SDS011;1180;51.438;6.978;2023-03-11T17:02:39;2.33;;;1.70;;
2338;SDS011;1180;51.438;6.978;2023-03-11T17:05:05;2.40;;;2.10;;